createdAt,value
2018-09-21T00:01:09.954Z,99.90
2018-09-21T00:03:39.007Z,99.90
2018-09-21T00:06:08.010Z,99.90
2018-09-21T00:08:37.042Z,99.90
2018-09-21T00:11:06.070Z,99.90
2018-09-21T00:13:35.087Z,99.90
2018-09-21T00:16:04.133Z,99.90
2018-09-21T00:18:33.133Z,99.90
2018-09-21T00:21:02.184Z,99.90
2018-09-21T00:23:31.301Z,99.90
2018-09-21T00:26:00.225Z,99.90
2018-09-21T00:28:29.519Z,99.90
2018-09-21T00:30:58.486Z,99.90
2018-09-21T00:33:27.509Z,99.90
2018-09-21T00:35:56.502Z,99.90
2018-09-21T00:38:25.566Z,99.90
2018-09-21T00:40:54.591Z,99.90
2018-09-21T00:43:23.562Z,99.90
2018-09-21T00:45:52.674Z,99.90
2018-09-21T00:48:21.752Z,99.90
2018-09-21T00:50:50.771Z,99.90
2018-09-21T00:53:19.786Z,99.90
2018-09-21T00:55:48.904Z,99.90
2018-09-21T00:58:17.912Z,99.90
2018-09-21T01:00:46.926Z,99.90
2018-09-21T01:03:15.945Z,99.90
2018-09-21T01:05:45.034Z,99.90
2018-09-21T01:08:14.040Z,99.90
2018-09-21T01:10:43.115Z,99.90
2018-09-21T01:13:12.190Z,99.90
2018-09-21T01:15:41.235Z,99.90
2018-09-21T01:18:10.240Z,99.90
2018-09-21T01:20:39.319Z,99.90
2018-09-21T01:23:08.409Z,99.90
2018-09-21T01:25:37.465Z,99.90
2018-09-21T01:28:06.498Z,99.90
2018-09-21T01:30:35.550Z,99.90
2018-09-21T01:33:04.704Z,99.90
2018-09-21T01:35:33.724Z,99.90
2018-09-21T01:38:02.814Z,99.90
2018-09-21T01:40:31.859Z,99.90
2018-09-21T01:43:07.271Z,99.90
2018-09-21T01:45:36.293Z,99.90
2018-09-21T01:48:05.309Z,99.90
2018-09-21T01:50:34.395Z,99.90
2018-09-21T01:53:03.354Z,99.90
2018-09-21T01:55:32.581Z,99.90
2018-09-21T01:58:01.582Z,99.90
2018-09-21T02:00:30.567Z,99.90
2018-09-21T02:02:59.573Z,99.90
2018-09-21T02:05:28.581Z,99.90
2018-09-21T02:07:57.625Z,99.90
2018-09-21T02:10:26.686Z,99.90
2018-09-21T02:12:55.743Z,99.90
2018-09-21T02:15:24.876Z,99.90
2018-09-21T02:17:53.930Z,99.90
2018-09-21T02:20:22.889Z,99.90
2018-09-21T02:22:51.960Z,99.90
2018-09-21T02:25:20.999Z,99.90
2018-09-21T02:27:50.123Z,99.90
2018-09-21T02:30:19.108Z,99.90
2018-09-21T02:32:48.126Z,99.90
2018-09-21T02:35:17.341Z,99.90
2018-09-21T02:37:46.327Z,99.90
2018-09-21T02:40:15.455Z,99.90
2018-09-21T02:42:44.468Z,99.90
2018-09-21T02:45:13.454Z,99.90
2018-09-21T02:47:42.514Z,99.90
2018-09-21T02:50:11.472Z,99.90
2018-09-21T02:52:40.546Z,99.90
2018-09-21T02:55:09.607Z,99.90
2018-09-21T02:57:38.636Z,99.90
2018-09-21T03:00:08.191Z,99.90
2018-09-21T03:02:37.270Z,99.90
2018-09-21T03:05:06.386Z,99.90
2018-09-21T03:07:35.432Z,99.90
2018-09-21T03:10:04.399Z,99.90
2018-09-21T03:12:33.475Z,99.90
2018-09-21T03:15:02.510Z,99.90
2018-09-21T03:17:31.557Z,99.90
2018-09-21T03:20:00.549Z,99.90
2018-09-21T03:22:29.601Z,99.90
2018-09-21T03:24:58.601Z,99.90
2018-09-21T03:27:27.693Z,99.90
2018-09-21T03:29:56.674Z,99.90
2018-09-21T03:32:25.711Z,99.90
2018-09-21T03:34:54.768Z,99.90
2018-09-21T03:37:23.871Z,99.90
2018-09-21T03:39:52.898Z,99.90
2018-09-21T03:42:21.862Z,99.90
2018-09-21T03:44:50.921Z,99.90
2018-09-21T03:47:20.002Z,99.90
2018-09-21T03:49:48.986Z,99.90
2018-09-21T03:52:18.003Z,99.90
2018-09-21T03:54:47.042Z,99.90
2018-09-21T03:57:16.022Z,99.90
2018-09-21T03:59:45.051Z,99.90
2018-09-21T04:02:14.110Z,99.90
2018-09-21T04:04:43.121Z,99.90
2018-09-21T04:07:12.341Z,99.90
2018-09-21T04:09:41.331Z,99.90
2018-09-21T04:12:10.295Z,99.90
2018-09-21T04:14:39.290Z,99.90
2018-09-21T04:17:08.394Z,99.90
2018-09-21T04:19:37.539Z,99.90
2018-09-21T04:22:06.551Z,99.90
2018-09-21T04:24:36.462Z,99.90
2018-09-21T04:27:05.703Z,99.90
2018-09-21T04:29:34.817Z,99.90
2018-09-21T04:32:04.043Z,99.90
2018-09-21T04:34:33.262Z,99.90
2018-09-21T04:37:02.231Z,99.90
2018-09-21T04:39:31.388Z,99.90
2018-09-21T04:42:00.439Z,99.90
2018-09-21T04:44:29.430Z,99.90
2018-09-21T04:46:58.392Z,99.90
2018-09-21T04:49:27.482Z,99.90
2018-09-21T04:51:56.615Z,99.90
2018-09-21T04:54:25.589Z,99.90
2018-09-21T04:56:55.162Z,99.90
2018-09-21T04:59:24.183Z,99.90
2018-09-21T05:01:53.428Z,99.90
2018-09-21T05:04:22.489Z,99.90
2018-09-21T05:06:51.489Z,99.90
2018-09-21T05:09:20.475Z,99.90
2018-09-21T05:11:49.579Z,99.90
2018-09-21T05:14:18.605Z,99.90
2018-09-21T05:16:47.749Z,99.90
2018-09-21T05:19:16.780Z,99.90
2018-09-21T05:21:45.783Z,99.90
2018-09-21T05:24:14.804Z,99.90
2018-09-21T05:26:43.794Z,99.90
2018-09-21T05:29:12.859Z,99.90
2018-09-21T05:31:41.855Z,99.90
2018-09-21T05:34:10.939Z,99.90
2018-09-21T05:36:40.299Z,99.90
2018-09-21T05:39:11.289Z,99.90
2018-09-21T05:41:40.399Z,99.90
2018-09-21T05:44:10.187Z,99.90
2018-09-21T05:46:39.745Z,99.90
2018-09-21T05:49:08.916Z,99.90
2018-09-21T05:51:38.169Z,99.90
2018-09-21T05:54:07.230Z,99.90
2018-09-21T05:56:36.384Z,99.90
2018-09-21T05:59:05.362Z,99.90
2018-09-21T06:01:34.401Z,99.90
2018-09-21T06:04:03.438Z,99.90
2018-09-21T06:06:32.534Z,99.90
2018-09-21T06:09:01.575Z,99.90
2018-09-21T06:11:30.675Z,99.90
2018-09-21T06:14:00.039Z,99.90
2018-09-21T06:16:29.102Z,99.90
2018-09-21T06:18:58.122Z,99.90
2018-09-21T06:21:27.194Z,99.90
2018-09-21T06:23:56.242Z,99.90
2018-09-21T06:26:25.309Z,99.90
2018-09-21T06:28:54.592Z,99.90
2018-09-21T06:31:23.635Z,99.90
2018-09-21T06:33:52.703Z,99.90
2018-09-21T06:36:22.368Z,99.90
2018-09-21T06:38:51.358Z,99.90
2018-09-21T06:41:20.705Z,99.90
2018-09-21T06:43:49.752Z,99.90
2018-09-21T06:46:18.771Z,99.90
2018-09-21T06:48:47.756Z,99.90
2018-09-21T06:51:16.736Z,99.90
2018-09-21T06:53:45.843Z,99.90
2018-09-21T06:56:14.863Z,99.90
2018-09-21T06:58:44.030Z,99.90
2018-09-21T07:01:13.127Z,99.90
2018-09-21T07:03:42.158Z,99.90
2018-09-21T07:06:11.291Z,99.90
2018-09-21T07:08:40.279Z,99.90
2018-09-21T07:11:09.399Z,99.90
2018-09-21T07:13:38.555Z,99.90
2018-09-21T07:16:07.634Z,99.90
2018-09-21T07:18:36.675Z,99.90
2018-09-21T07:21:05.731Z,99.90
2018-09-21T07:23:34.761Z,99.90
2018-09-21T07:26:03.818Z,99.90
2018-09-21T07:28:32.875Z,99.90
2018-09-21T07:31:02.004Z,99.90
2018-09-21T07:33:30.887Z,99.90
2018-09-21T07:35:59.911Z,99.90
2018-09-21T07:38:28.927Z,99.90
2018-09-21T07:40:58.012Z,99.90
2018-09-21T07:43:26.947Z,99.90
2018-09-21T07:45:56.038Z,99.90
2018-09-21T07:48:25.135Z,99.90
2018-09-21T07:50:54.197Z,99.90
2018-09-21T07:53:23.238Z,99.90
2018-09-21T07:55:52.393Z,99.90
2018-09-21T07:58:21.342Z,99.90
2018-09-21T08:00:50.427Z,99.90
2018-09-21T08:03:19.695Z,99.90
2018-09-21T08:05:48.667Z,99.90
2018-09-21T08:08:17.706Z,99.90
2018-09-21T08:10:46.834Z,99.90
2018-09-21T08:13:15.856Z,99.90
2018-09-21T08:15:44.870Z,99.90
2018-09-21T08:18:13.922Z,99.90
2018-09-21T08:20:42.953Z,99.90
2018-09-21T08:23:11.935Z,99.90
2018-09-21T08:25:40.916Z,99.90
2018-09-21T08:28:10.014Z,99.90
2018-09-21T08:30:39.020Z,99.90
2018-09-21T08:33:08.133Z,99.90
2018-09-21T08:35:37.122Z,99.90
2018-09-21T08:38:06.254Z,99.90
2018-09-21T08:40:35.363Z,99.90
2018-09-21T08:43:04.444Z,99.90
2018-09-21T08:45:33.508Z,99.90
2018-09-21T08:48:02.603Z,99.90
2018-09-21T08:50:31.590Z,99.90
2018-09-21T08:53:00.640Z,99.90
2018-09-21T08:55:29.687Z,99.90
2018-09-21T08:57:58.698Z,99.90
2018-09-21T09:00:27.921Z,99.90
2018-09-21T09:02:57.397Z,99.90
2018-09-21T09:05:26.926Z,99.90
2018-09-21T09:07:55.944Z,99.90
2018-09-21T09:10:24.985Z,99.90
2018-09-21T09:12:54.159Z,99.90
2018-09-21T09:15:23.191Z,99.90
2018-09-21T09:17:52.241Z,99.90
2018-09-21T09:20:21.273Z,99.90
2018-09-21T09:22:50.344Z,99.90
2018-09-21T09:25:22.318Z,99.90
2018-09-21T09:27:51.339Z,99.90
2018-09-21T09:30:21.030Z,99.90
2018-09-21T09:32:50.127Z,99.90
2018-09-21T09:35:19.191Z,99.90
2018-09-21T09:37:48.514Z,99.90
2018-09-21T09:40:17.475Z,99.90
2018-09-21T09:42:46.659Z,99.90
2018-09-21T09:45:15.643Z,99.90
2018-09-21T09:47:44.671Z,99.90
2018-09-21T09:50:13.746Z,99.90
2018-09-21T09:52:43.118Z,99.90
2018-09-21T09:55:12.140Z,99.90
2018-09-21T09:57:41.281Z,99.90
2018-09-21T10:00:10.394Z,99.90
2018-09-21T10:02:39.507Z,99.90
2018-09-21T10:05:08.590Z,99.90
2018-09-21T10:07:37.588Z,99.90
2018-09-21T10:10:06.637Z,99.90
2018-09-21T10:12:35.650Z,99.90
2018-09-21T10:15:04.615Z,99.90
2018-09-21T10:17:33.679Z,99.90
2018-09-21T10:20:02.643Z,99.90
2018-09-21T10:22:31.670Z,99.90
2018-09-21T10:25:00.633Z,99.90
2018-09-21T10:27:29.801Z,99.90
2018-09-21T10:29:58.672Z,99.90
2018-09-21T10:32:28.233Z,99.90
2018-09-21T10:34:57.322Z,99.90
2018-09-21T10:37:26.379Z,99.90
2018-09-21T10:39:55.444Z,99.90
2018-09-21T10:42:24.550Z,99.90
2018-09-21T10:44:53.474Z,99.90
2018-09-21T10:47:22.514Z,99.90
2018-09-21T10:49:51.566Z,99.90
2018-09-21T10:52:20.589Z,99.90
2018-09-21T10:54:49.649Z,99.90
2018-09-21T10:57:18.643Z,99.90
2018-09-21T10:59:47.772Z,99.90
2018-09-21T11:02:16.738Z,99.90
2018-09-21T11:04:45.822Z,99.90
2018-09-21T11:07:14.807Z,99.90
2018-09-21T11:09:43.802Z,99.90
2018-09-21T11:12:12.832Z,99.90
2018-09-21T11:14:41.889Z,99.90
2018-09-21T11:17:10.901Z,99.90
2018-09-21T11:19:39.957Z,99.90
2018-09-21T11:22:09.113Z,99.90
2018-09-21T11:24:38.390Z,99.90
2018-09-21T11:27:07.544Z,99.90
2018-09-21T11:29:36.518Z,99.90
2018-09-21T11:32:05.602Z,99.90
2018-09-21T11:34:34.613Z,99.80
2018-09-21T11:37:03.867Z,99.50
2018-09-21T11:39:32.821Z,99.20
2018-09-21T11:42:01.843Z,99.10
2018-09-21T11:44:30.942Z,99.50
2018-09-21T11:46:59.958Z,99.60
2018-09-21T11:49:28.926Z,99.80
2018-09-21T11:51:57.938Z,99.00
2018-09-21T11:54:27.143Z,98.70
2018-09-21T11:56:56.221Z,98.60
2018-09-21T11:59:25.230Z,98.40
2018-09-21T12:01:54.249Z,98.10
2018-09-21T12:04:23.263Z,97.70
2018-09-21T12:06:53.435Z,96.70
2018-09-21T12:09:22.438Z,97.10
2018-09-21T12:11:51.474Z,97.00
2018-09-21T12:14:20.519Z,97.30
2018-09-21T12:16:49.585Z,97.20
2018-09-21T12:19:18.885Z,96.90
2018-09-21T12:21:47.915Z,96.70
2018-09-21T12:24:16.863Z,97.00
2018-09-21T12:26:45.849Z,97.10
2018-09-21T12:29:14.915Z,97.20
2018-09-21T12:31:44.060Z,97.70
2018-09-21T12:34:13.271Z,97.70
2018-09-21T12:36:42.701Z,97.30
2018-09-21T12:39:13.164Z,97.20
2018-09-21T12:41:42.494Z,96.90
2018-09-21T12:44:12.895Z,96.70
2018-09-21T12:46:42.035Z,96.70
2018-09-21T12:49:11.321Z,96.50
2018-09-21T12:51:40.446Z,95.90
2018-09-21T12:54:09.423Z,96.00
2018-09-21T12:56:38.662Z,95.80
2018-09-21T12:59:07.633Z,95.60
2018-09-21T13:01:36.659Z,95.40
2018-09-21T13:04:05.778Z,95.30
2018-09-21T13:06:34.794Z,95.30
2018-09-21T13:09:04.905Z,96.30
2018-09-21T13:11:33.896Z,95.50
2018-09-21T13:14:02.976Z,95.30
2018-09-21T13:16:32.083Z,95.40
2018-09-21T13:19:01.134Z,95.50
2018-09-21T13:21:30.198Z,95.40
2018-09-21T13:23:59.295Z,95.40
2018-09-21T13:26:28.578Z,95.60
2018-09-21T13:28:57.638Z,95.50
2018-09-21T13:31:26.647Z,94.70
2018-09-21T13:33:55.670Z,94.80
2018-09-21T13:36:24.692Z,95.10
2018-09-21T13:38:53.678Z,95.10
2018-09-21T13:41:22.806Z,95.10
2018-09-21T13:43:51.919Z,94.80
2018-09-21T13:46:21.935Z,95.20
2018-09-21T13:48:51.464Z,95.30
2018-09-21T13:51:20.513Z,94.90
2018-09-21T13:53:49.759Z,94.80
2018-09-21T13:56:18.742Z,95.00
2018-09-21T13:58:48.266Z,94.80
2018-09-21T14:01:18.110Z,95.10
2018-09-21T14:03:47.470Z,95.30
2018-09-21T14:06:16.719Z,95.60
2018-09-21T14:08:45.686Z,95.80
2018-09-21T14:11:14.727Z,96.10
2018-09-21T14:13:43.766Z,96.00
2018-09-21T14:16:12.815Z,96.60
2018-09-21T14:18:42.558Z,96.90
2018-09-21T14:21:11.641Z,96.90
2018-09-21T14:23:40.679Z,97.00
2018-09-21T14:26:10.462Z,97.20
2018-09-21T14:28:41.714Z,97.30
2018-09-21T14:31:10.757Z,97.30
2018-09-21T14:33:39.808Z,97.70
2018-09-21T14:36:08.862Z,98.00
2018-09-21T14:38:37.898Z,98.10
2018-09-21T14:41:07.204Z,97.90
2018-09-21T14:43:36.255Z,97.90
2018-09-21T14:46:05.676Z,97.90
2018-09-21T14:48:34.902Z,98.00
2018-09-21T14:51:03.886Z,98.00
2018-09-21T14:53:32.982Z,98.30
2018-09-21T14:56:01.934Z,98.00
2018-09-21T14:58:30.970Z,97.70
2018-09-21T15:00:59.989Z,97.90
2018-09-21T15:03:29.038Z,97.60
2018-09-21T15:05:58.043Z,97.60
2018-09-21T15:08:28.414Z,97.50
2018-09-21T15:10:57.342Z,97.50
2018-09-21T15:13:26.659Z,97.40
2018-09-21T15:15:55.715Z,97.30
2018-09-21T15:18:25.104Z,98.70
2018-09-21T15:20:54.096Z,99.90
2018-09-21T15:23:23.336Z,99.90
2018-09-21T15:25:52.374Z,99.90
2018-09-21T15:28:21.459Z,99.90
2018-09-21T15:30:50.507Z,99.90
2018-09-21T15:33:19.478Z,99.90
2018-09-21T15:35:48.523Z,99.90
2018-09-21T15:38:17.590Z,99.90
2018-09-21T15:40:46.650Z,99.90
2018-09-21T15:43:15.722Z,99.90
2018-09-21T15:45:45.112Z,99.90
2018-09-21T15:48:14.134Z,99.90
2018-09-21T15:50:43.096Z,99.90
2018-09-21T15:53:12.081Z,99.90
2018-09-21T15:55:41.076Z,99.90
2018-09-21T15:58:10.146Z,99.90
2018-09-21T16:00:39.195Z,99.90
2018-09-21T16:03:08.489Z,99.90
2018-09-21T16:05:37.430Z,99.90
2018-09-21T16:08:06.461Z,99.90
2018-09-21T16:10:35.492Z,99.90
2018-09-21T16:13:04.485Z,99.90
2018-09-21T16:15:33.568Z,99.90
2018-09-21T16:18:02.610Z,99.90
2018-09-21T16:20:31.720Z,99.90
2018-09-21T16:23:00.828Z,99.90
2018-09-21T16:25:29.861Z,99.90
2018-09-21T16:27:58.886Z,99.90
2018-09-21T16:30:28.004Z,99.90
2018-09-21T16:32:57.108Z,99.90
2018-09-21T16:35:26.086Z,99.90
2018-09-21T16:37:55.136Z,99.90
2018-09-21T16:40:24.110Z,99.90
2018-09-21T16:42:54.059Z,99.90
2018-09-21T16:45:23.085Z,99.90
2018-09-21T16:47:52.120Z,99.90
2018-09-21T16:50:21.142Z,99.90
2018-09-21T16:52:50.204Z,99.90
2018-09-21T16:55:19.183Z,99.90
2018-09-21T16:57:48.186Z,99.90
2018-09-21T17:00:17.159Z,99.90
2018-09-21T17:02:46.335Z,99.90
2018-09-21T17:05:15.485Z,99.90
2018-09-21T17:07:46.101Z,99.90
2018-09-21T17:10:15.095Z,99.90
2018-09-21T17:12:44.296Z,99.90
2018-09-21T17:15:14.749Z,99.90
2018-09-21T17:17:44.083Z,99.90
2018-09-21T17:20:13.188Z,99.90
2018-09-21T17:22:42.511Z,99.90
2018-09-21T17:25:11.546Z,99.90
2018-09-21T17:27:40.812Z,99.90
2018-09-21T17:30:10.453Z,99.90
2018-09-21T17:32:39.505Z,99.90
2018-09-21T17:35:08.850Z,99.90
2018-09-21T17:37:37.835Z,99.90
2018-09-21T17:40:06.942Z,99.90
2018-09-21T17:42:36.048Z,99.90
2018-09-21T17:45:05.110Z,99.90
2018-09-21T17:47:34.123Z,99.90
2018-09-21T17:50:03.187Z,99.90
2018-09-21T17:52:32.269Z,99.90
2018-09-21T17:55:01.263Z,99.90
2018-09-21T17:57:30.247Z,99.90
2018-09-21T17:59:59.298Z,99.90
2018-09-21T18:02:28.334Z,99.90
2018-09-21T18:04:57.392Z,99.90
2018-09-21T18:07:26.506Z,99.90
2018-09-21T18:09:55.454Z,99.90
2018-09-21T18:12:24.523Z,99.90
2018-09-21T18:14:53.600Z,99.90
2018-09-21T18:17:22.698Z,99.90
2018-09-21T18:19:51.755Z,99.90
2018-09-21T18:22:20.828Z,99.90
2018-09-21T18:24:49.873Z,99.90
2018-09-21T18:27:18.991Z,99.90
2018-09-21T18:29:48.055Z,99.90
2018-09-21T18:32:17.079Z,99.90
2018-09-21T18:34:46.090Z,99.90
2018-09-21T18:37:15.090Z,99.90
2018-09-21T18:39:44.080Z,99.90
2018-09-21T18:42:16.128Z,99.90
2018-09-21T18:44:45.431Z,99.90
2018-09-21T18:47:14.588Z,99.90
2018-09-21T18:49:44.095Z,99.90
2018-09-21T18:52:13.733Z,99.90
2018-09-21T18:54:43.225Z,99.90
2018-09-21T18:57:13.117Z,99.90
2018-09-21T18:59:43.108Z,99.90
2018-09-21T19:02:12.651Z,99.90
2018-09-21T19:04:41.853Z,99.90
2018-09-21T19:07:16.597Z,99.90
2018-09-21T19:09:46.534Z,99.90
2018-09-21T19:12:15.940Z,99.90
2018-09-21T19:14:44.937Z,99.90
2018-09-21T19:17:13.977Z,99.90
2018-09-21T19:19:42.934Z,99.90
2018-09-21T19:22:12.174Z,99.90
2018-09-21T19:24:41.153Z,99.90
2018-09-21T19:27:11.314Z,99.90
2018-09-21T19:29:40.396Z,99.90
2018-09-21T19:32:09.397Z,99.90
2018-09-21T19:34:38.534Z,99.90
2018-09-21T19:37:07.667Z,99.90
2018-09-21T19:39:36.815Z,99.90
2018-09-21T19:42:06.457Z,99.90
2018-09-21T19:44:35.651Z,99.90
2018-09-21T19:47:05.015Z,99.90
2018-09-21T19:49:34.414Z,99.90
2018-09-21T19:52:03.462Z,99.90
2018-09-21T19:54:32.721Z,99.90
2018-09-21T19:57:01.751Z,99.90
2018-09-21T19:59:30.813Z,99.90
2018-09-21T20:01:59.817Z,99.90
2018-09-21T20:04:28.753Z,99.90
2018-09-21T20:06:57.728Z,99.90
2018-09-21T20:09:26.974Z,99.90
2018-09-21T20:11:56.148Z,99.90
2018-09-21T20:14:31.882Z,99.90
2018-09-21T20:17:02.100Z,99.90
2018-09-21T20:19:31.155Z,99.90
2018-09-21T20:22:00.654Z,99.90
2018-09-21T20:24:29.693Z,99.90
2018-09-21T20:26:58.848Z,99.90
2018-09-21T20:29:27.809Z,99.90
2018-09-21T20:32:02.161Z,99.90
2018-09-21T20:34:31.135Z,99.90
2018-09-21T20:37:00.254Z,99.90
2018-09-21T20:39:29.237Z,99.90
2018-09-21T20:41:58.238Z,99.90
2018-09-21T20:44:27.382Z,99.90
2018-09-21T20:46:56.382Z,99.90
2018-09-21T20:49:25.545Z,99.90
2018-09-21T20:51:54.644Z,99.90
2018-09-21T20:54:23.619Z,99.90
2018-09-21T20:56:52.598Z,99.90
2018-09-21T20:59:21.655Z,99.90
2018-09-21T21:01:50.635Z,99.90
2018-09-21T21:04:19.805Z,99.90
2018-09-21T21:06:48.836Z,99.90
2018-09-21T21:09:17.918Z,99.90
2018-09-21T21:11:47.017Z,99.90
2018-09-21T21:14:16.122Z,99.90
2018-09-21T21:16:45.529Z,99.90
2018-09-21T21:19:14.624Z,99.90
2018-09-21T21:21:43.706Z,99.90
2018-09-21T21:24:12.876Z,99.90
2018-09-21T21:26:41.989Z,99.90
2018-09-21T21:29:11.159Z,99.90
2018-09-21T21:31:40.168Z,99.90
2018-09-21T21:34:09.157Z,99.90
2018-09-21T21:36:38.202Z,99.90
2018-09-21T21:39:08.168Z,99.90
2018-09-21T21:41:37.323Z,99.90
2018-09-21T21:44:06.514Z,99.90
2018-09-21T21:46:35.777Z,99.90
2018-09-21T21:49:05.457Z,99.90
2018-09-21T21:51:34.482Z,99.90
2018-09-21T21:54:03.639Z,99.90
2018-09-21T21:56:33.669Z,99.90
2018-09-21T21:59:02.940Z,99.90
2018-09-21T22:01:37.855Z,99.90
2018-09-21T22:04:09.879Z,99.90
2018-09-21T22:06:38.933Z,99.90
2018-09-21T22:09:09.023Z,99.90
2018-09-21T22:11:43.862Z,99.90
2018-09-21T22:14:13.273Z,99.90
2018-09-21T22:16:42.341Z,99.90
2018-09-21T22:19:11.673Z,99.90
2018-09-21T22:21:41.854Z,99.90
2018-09-21T22:24:11.226Z,99.90
2018-09-21T22:26:40.357Z,99.90
2018-09-21T22:29:09.275Z,99.90
2018-09-21T22:31:38.266Z,99.90
2018-09-21T22:34:07.326Z,99.90
2018-09-21T22:36:36.422Z,99.90
2018-09-21T22:39:08.297Z,99.90
2018-09-21T22:41:37.512Z,99.90
2018-09-21T22:44:06.765Z,99.90
2018-09-21T22:46:35.810Z,99.90
2018-09-21T22:49:08.350Z,99.90
2018-09-21T22:51:37.398Z,99.90
2018-09-21T22:54:06.402Z,99.90
2018-09-21T22:56:35.935Z,99.90
2018-09-21T22:59:05.148Z,99.90
2018-09-21T23:01:34.215Z,99.90
2018-09-21T23:04:03.233Z,99.90
2018-09-21T23:06:32.283Z,99.90
2018-09-21T23:09:01.518Z,99.90
2018-09-21T23:11:30.589Z,99.90
2018-09-21T23:14:00.251Z,99.90
2018-09-21T23:16:29.302Z,99.90
2018-09-21T23:18:58.563Z,99.90
2018-09-21T23:21:27.879Z,99.90
2018-09-21T23:23:56.988Z,99.90
2018-09-21T23:26:25.918Z,99.90
2018-09-21T23:28:55.044Z,99.90
2018-09-21T23:31:24.433Z,99.90
2018-09-21T23:33:53.714Z,99.90
2018-09-21T23:36:22.991Z,99.90
2018-09-21T23:38:52.007Z,99.90
2018-09-21T23:41:21.455Z,99.90
2018-09-21T23:43:51.476Z,99.90
2018-09-21T23:46:20.538Z,99.90
2018-09-21T23:48:49.657Z,99.90
2018-09-21T23:51:18.676Z,99.90
2018-09-21T23:53:47.791Z,99.90
2018-09-21T23:56:17.040Z,99.90
2018-09-21T23:58:46.771Z,99.90
